This is the latest recevied weather packets stored in our database for station/object K4OAM-13. If no packets are shown the sender has not sent any weather packets the latest 10 day(s).
| Time | Temp. | Humidity | Pressure | Rain* | Wind** | Luminosity | Snow |
|---|---|---|---|---|---|---|---|
| 1787464738 | 3.89° C | 70% | 1024.3 hPa | - | - | - | - |
| 1787464138 | 3.33° C | 73% | 1024.5 hPa | - | - | - | - |
| 1787463538 | 3.89° C | 73% | 1024.3 hPa | - | - | - | - |
| 1787462938 | 2.78° C | 82% | 1024.6 hPa | - | - | - | - |
| 1787462337 | 2.22° C | 88% | 1024.9 hPa | - | - | - | - |
| 1787461737 | 2.22° C | 85% | 1024.8 hPa | - | - | - | - |
| 1787461138 | 2.22° C | 80% | 1024.8 hPa | - | - | - | - |
| 1787460537 | 2.22° C | 79% | 1024.7 hPa | - | - | - | - |
| 1787459937 | 2.78° C | 77% | 1024.5 hPa | - | - | - | - |
| 1787459338 | 3.33° C | 73% | 1024.3 hPa | - | - | - | - |
| 1787458738 | 3.89° C | 71% | 1024 hPa | - | - | - | - |
| 1787458138 | 2.78° C | 77% | 1024.6 hPa | - | - | - | - |
| 1787457538 | 2.78° C | 79% | 1024.6 hPa | - | - | - | - |
| 1787456937 | 2.22° C | 82% | 1025 hPa | - | - | - | - |
| 1787456338 | 2.22° C | 83% | 1024.8 hPa | - | - | - | - |
| 1787455738 | 2.22° C | 83% | 1024.8 hPa | - | - | - | - |
| 1787455138 | 2.22° C | 85% | 1024.8 hPa | - | - | - | - |
| 1787454537 | 1.67° C | 88% | 1024.9 hPa | - | - | - | - |
| 1787453938 | 2.22° C | 87% | 1024.9 hPa | - | - | - | - |
| 1787453338 | 2.22° C | 88% | 1024.9 hPa | - | - | - | - |
| 1787452737 | 2.22° C | 88% | 1024.9 hPa | - | - | - | - |
| 1787452138 | 2.78° C | 86% | 1024.8 hPa | - | - | - | - |
| 1787451537 | 3.33° C | 83% | 1024.7 hPa | - | - | - | - |
| 1787450938 | 2.78° C | 82% | 1024.7 hPa | - | - | - | - |
| 1787450338 | 3.33° C | 79% | 1024.5 hPa | - | - | - | - |
* Rain since midnight (hover to see other rain measurements)
** Current wind speed in m/s (hover to see current wind gust speed)